WLDCD11 KNZY-
Flight info
| Callsign | WLDCD11 |
|---|---|
| Flight time | N/A |
| Altitude | VFR |
| Route | W |
| Aircraft | A600/L-VGD/C |
Departure
| Time | 2026-04-26 00:57 |
|---|---|
| Airport | North Island Naval Air Station-Halsey Field (KNZY) |
Arrival
| Time | N/A |
|---|---|
| Airport | - |
| Time | Latitude | Longitude | Altitude | Speed | Heading |
|---|---|---|---|---|---|
| 2026-04-26 00:49 | 32.71246 | -117.20359 | 21 ft | 0 kts | 360° |
| 2026-04-26 00:54 | 32.71251 | -117.20356 | 35 ft | 4 kts | 354° |
| 2026-04-26 00:54 | 32.71334 | -117.20426 | 194 ft | 35 kts | 320° |
| 2026-04-26 00:55 | 32.71375 | -117.21070 | 354 ft | 120 kts | 276° |
| 2026-04-26 00:55 | 32.71104 | -117.22157 | 122 ft | 146 kts | 241° |
| 2026-04-26 00:55 | 32.70273 | -117.22660 | 264 ft | 130 kts | 201° |
| 2026-04-26 00:55 | 32.69531 | -117.22863 | 156 ft | 78 kts | 198° |
| 2026-04-26 00:56 | 32.69064 | -117.22889 | 224 ft | 59 kts | 193° |
| 2026-04-26 00:56 | 32.68706 | -117.22907 | 205 ft | 43 kts | 191° |
| 2026-04-26 00:56 | 32.68477 | -117.22950 | 156 ft | 22 kts | 190° |
| 2026-04-26 00:56 | 32.68402 | -117.22970 | 70 ft | 4 kts | 188° |
| 2026-04-26 00:57 | 32.68281 | -117.22992 | 229 ft | 54 kts | 189° |
| 2026-04-26 00:57 | 32.67697 | -117.23289 | 360 ft | 121 kts | 217° |
| 2026-04-26 00:57 | 32.67430 | -117.24163 | 899 ft | 97 kts | 257° |
| 2026-04-26 00:57 | 32.67521 | -117.25111 | 999 ft | 136 kts | 278° |
| 2026-04-26 00:58 | 32.67714 | -117.26274 | 437 ft | 138 kts | 282° |
| 2026-04-26 00:58 | 32.68091 | -117.27198 | 677 ft | 122 kts | 301° |
| 2026-04-26 00:58 | 32.68729 | -117.27888 | 1136 ft | 121 kts | 318° |
| 2026-04-26 00:58 | 32.69366 | -117.28370 | 1882 ft | 104 kts | 325° |
| 2026-04-26 00:59 | 32.70016 | -117.28945 | 1730 ft | 133 kts | 317° |
| 2026-04-26 00:59 | 32.70696 | -117.29719 | 1352 ft | 129 kts | 310° |
| 2026-04-26 00:59 | 32.71195 | -117.30512 | 1679 ft | 112 kts | 296° |
| 2026-04-26 00:59 | 32.71364 | -117.31451 | 1839 ft | 126 kts | 276° |
| 2026-04-26 01:00 | 32.71510 | -117.32581 | 1468 ft | 151 kts | 277° |
| 2026-04-26 01:00 | 32.71682 | -117.33894 | 735 ft | 166 kts | 277° |
| 2026-04-26 01:00 | 32.71758 | -117.35217 | 338 ft | 152 kts | 274° |
| 2026-04-26 01:00 | 32.71816 | -117.36295 | 634 ft | 108 kts | 275° |
| 2026-04-26 01:01 | 32.71982 | -117.37049 | 1394 ft | 81 kts | 286° |
| 2026-04-26 01:01 | 32.72260 | -117.37561 | 2181 ft | 78 kts | 292° |
| 2026-04-26 01:01 | 32.72521 | -117.38131 | 2761 ft | 75 kts | 293° |
| 2026-04-26 01:01 | 32.72504 | -117.38853 | 3106 ft | 101 kts | 268° |
| 2026-04-26 01:02 | 32.72426 | -117.39685 | 3292 ft | 102 kts | 266° |
| 2026-04-26 01:02 | 32.72379 | -117.40557 | 3197 ft | 114 kts | 266° |
| 2026-04-26 01:02 | 32.72328 | -117.41478 | 3265 ft | 113 kts | 266° |
| 2026-04-26 01:02 | 32.72278 | -117.42404 | 3289 ft | 113 kts | 266° |
| 2026-04-26 01:03 | 32.72233 | -117.43337 | 3283 ft | 113 kts | 266° |
| 2026-04-26 01:03 | 32.72184 | -117.44271 | 3275 ft | 113 kts | 266° |
| 2026-04-26 01:03 | 32.72130 | -117.45206 | 3273 ft | 114 kts | 266° |
| 2026-04-26 01:03 | 32.72081 | -117.46143 | 3277 ft | 114 kts | 266° |
| 2026-04-26 01:04 | 32.72035 | -117.47087 | 3277 ft | 115 kts | 266° |
| 2026-04-26 01:04 | 32.71957 | -117.48028 | 3278 ft | 114 kts | 265° |
| 2026-04-26 01:04 | 32.71876 | -117.48956 | 3275 ft | 112 kts | 265° |
| 2026-04-26 01:04 | 32.71801 | -117.49877 | 3276 ft | 111 kts | 265° |
| 2026-04-26 01:05 | 32.71730 | -117.50789 | 3276 ft | 110 kts | 265° |
| 2026-04-26 01:05 | 32.71662 | -117.51695 | 3277 ft | 110 kts | 265° |
| 2026-04-26 01:05 | 32.71586 | -117.52605 | 3276 ft | 111 kts | 265° |
| 2026-04-26 01:05 | 32.71513 | -117.53523 | 3276 ft | 112 kts | 265° |
| 2026-04-26 01:06 | 32.71445 | -117.54441 | 3274 ft | 111 kts | 265° |
| 2026-04-26 01:06 | 32.71377 | -117.55356 | 3276 ft | 111 kts | 265° |
| 2026-04-26 01:06 | 32.71316 | -117.56268 | 3272 ft | 109 kts | 267° |
| 2026-04-26 01:06 | 32.71512 | -117.57141 | 3270 ft | 114 kts | 289° |
| 2026-04-26 01:07 | 32.71967 | -117.57936 | 3269 ft | 116 kts | 298° |
| 2026-04-26 01:07 | 32.72375 | -117.58721 | 3269 ft | 103 kts | 298° |
| 2026-04-26 01:07 | 32.72744 | -117.59448 | 3273 ft | 102 kts | 298° |
| 2026-04-26 01:07 | 32.73111 | -117.60165 | 3270 ft | 107 kts | 298° |
| 2026-04-26 01:08 | 32.73506 | -117.60940 | 3273 ft | 106 kts | 298° |
| 2026-04-26 01:08 | 32.73816 | -117.61696 | 3267 ft | 99 kts | 292° |
| 2026-04-26 01:08 | 32.74021 | -117.62488 | 3265 ft | 102 kts | 285° |
| 2026-04-26 01:08 | 32.74218 | -117.63233 | 3278 ft | 89 kts | 285° |
| 2026-04-26 01:09 | 32.74403 | -117.63897 | 3275 ft | 82 kts | 285° |
| 2026-04-26 01:09 | 32.74523 | -117.64321 | 3278 ft | 79 kts | 285° |
| 2026-04-26 01:09 | 32.74702 | -117.64925 | 3278 ft | 77 kts | 285° |
| 2026-04-26 01:09 | 32.74888 | -117.65515 | 3273 ft | 76 kts | 285° |
| 2026-04-26 01:10 | 32.75089 | -117.66090 | 3270 ft | 75 kts | 285° |
| 2026-04-26 01:10 | 32.75299 | -117.66658 | 3269 ft | 75 kts | 285° |
| 2026-04-26 01:10 | 32.75515 | -117.67220 | 3268 ft | 75 kts | 285° |
| 2026-04-26 01:10 | 32.75742 | -117.67821 | 3256 ft | 98 kts | 285° |
| 2026-04-26 01:11 | 32.75992 | -117.68745 | 3244 ft | 133 kts | 285° |
| 2026-04-26 01:11 | 32.76281 | -117.69861 | 3253 ft | 148 kts | 285° |
| 2026-04-26 01:11 | 32.76563 | -117.71082 | 3258 ft | 158 kts | 284° |
| 2026-04-26 01:11 | 32.76814 | -117.72260 | 3268 ft | 128 kts | 283° |
| 2026-04-26 01:12 | 32.77012 | -117.73185 | 3280 ft | 105 kts | 283° |
| 2026-04-26 01:12 | 32.77187 | -117.73965 | 3278 ft | 92 kts | 283° |
| 2026-04-26 01:12 | 32.77354 | -117.74665 | 3279 ft | 85 kts | 283° |
| 2026-04-26 01:12 | 32.77520 | -117.75314 | 3276 ft | 80 kts | 283° |
| 2026-04-26 01:13 | 32.77684 | -117.75927 | 3267 ft | 76 kts | 283° |
| 2026-04-26 01:13 | 32.77860 | -117.76515 | 3269 ft | 75 kts | 283° |
| 2026-04-26 01:13 | 32.78045 | -117.77093 | 3268 ft | 75 kts | 283° |
| 2026-04-26 01:13 | 32.78240 | -117.77661 | 3268 ft | 74 kts | 283° |
| 2026-04-26 01:14 | 32.78449 | -117.78215 | 3269 ft | 74 kts | 283° |
| 2026-04-26 01:14 | 32.78668 | -117.78769 | 3271 ft | 74 kts | 283° |
| 2026-04-26 01:14 | 32.78891 | -117.79328 | 3266 ft | 75 kts | 283° |
| 2026-04-26 01:14 | 32.79113 | -117.79889 | 3269 ft | 75 kts | 283° |
| 2026-04-26 01:15 | 32.79333 | -117.80450 | 3271 ft | 75 kts | 283° |
| 2026-04-26 01:15 | 32.79557 | -117.81007 | 3270 ft | 75 kts | 283° |
| 2026-04-26 01:15 | 32.79780 | -117.81567 | 3270 ft | 75 kts | 283° |
| 2026-04-26 01:15 | 32.80006 | -117.82123 | 3268 ft | 75 kts | 283° |
| 2026-04-26 01:16 | 32.80235 | -117.82675 | 3269 ft | 74 kts | 283° |
| 2026-04-26 01:16 | 32.80470 | -117.83222 | 3267 ft | 74 kts | 283° |
| 2026-04-26 01:16 | 32.80706 | -117.83772 | 3263 ft | 75 kts | 283° |
| 2026-04-26 01:16 | 32.80934 | -117.84329 | 3264 ft | 75 kts | 283° |
| 2026-04-26 01:17 | 32.81162 | -117.84882 | 3261 ft | 75 kts | 283° |
| 2026-04-26 01:17 | 32.81393 | -117.85434 | 3266 ft | 75 kts | 283° |
| 2026-04-26 01:17 | 32.81618 | -117.85994 | 3266 ft | 75 kts | 283° |
| 2026-04-26 01:17 | 32.81836 | -117.86560 | 3266 ft | 75 kts | 283° |
| 2026-04-26 01:18 | 32.82057 | -117.87117 | 3264 ft | 74 kts | 283° |
| 2026-04-26 01:18 | 32.82287 | -117.87671 | 3267 ft | 75 kts | 283° |
| 2026-04-26 01:18 | 32.82515 | -117.88228 | 3266 ft | 74 kts | 283° |
| 2026-04-26 01:18 | 32.82745 | -117.88778 | 3263 ft | 74 kts | 283° |
| 2026-04-26 01:19 | 32.82984 | -117.89322 | 3263 ft | 74 kts | 283° |
| 2026-04-26 01:19 | 32.83223 | -117.89868 | 3265 ft | 75 kts | 283° |
| 2026-04-26 01:19 | 32.83458 | -117.90422 | 3267 ft | 75 kts | 283° |
| 2026-04-26 01:19 | 32.83687 | -117.90978 | 3261 ft | 75 kts | 283° |
| 2026-04-26 01:20 | 32.83916 | -117.91534 | 3269 ft | 75 kts | 283° |
| 2026-04-26 01:20 | 32.84137 | -117.92098 | 3268 ft | 75 kts | 283° |
| 2026-04-26 01:20 | 32.84354 | -117.92663 | 3266 ft | 75 kts | 283° |
| 2026-04-26 01:20 | 32.84566 | -117.93234 | 3265 ft | 75 kts | 283° |
| 2026-04-26 01:21 | 32.84780 | -117.93800 | 3262 ft | 75 kts | 283° |
| 2026-04-26 01:21 | 32.84998 | -117.94364 | 3269 ft | 75 kts | 283° |
| 2026-04-26 01:21 | 32.85213 | -117.94932 | 3259 ft | 75 kts | 283° |
| 2026-04-26 01:21 | 32.85430 | -117.95495 | 3263 ft | 75 kts | 283° |
| 2026-04-26 01:22 | 32.85654 | -117.96052 | 3267 ft | 75 kts | 283° |
| 2026-04-26 01:22 | 32.85753 | -117.96291 | 3271 ft | 74 kts | 283° |
| 2026-04-26 01:23 | 32.85862 | -117.96552 | 3258 ft | 76 kts | 283° |
| 2026-04-26 01:23 | 32.86086 | -117.97115 | 3263 ft | 75 kts | 283° |
| 2026-04-26 01:23 | 32.86302 | -117.97672 | 3261 ft | 75 kts | 283° |
| 2026-04-26 01:24 | 32.86521 | -117.98236 | 3262 ft | 75 kts | 283° |
| 2026-04-26 01:24 | 32.86737 | -117.98805 | 3264 ft | 76 kts | 283° |
| 2026-04-26 01:24 | 32.86868 | -117.99168 | 3269 ft | 76 kts | 283° |